Time;durP1;ratioP1;P1;durP2;ratioP2;P2;SDS_P1;SDS_P2;PMS_P1;PMS_P2;Temp;Humidity;BMP_temperature;BMP_pressure;BME280_temperature;BME280_humidity;BME280_pressure;Samples;Min_cycle;Max_cycle;Signal;HPM_P1;HPM_P2
2021/12/09 00:00:43;;;;;;;116.22;104.32;;;3.90;95.70;;;;;;5075119;28;20854;-76
2021/12/09 00:03:11;;;;;;;113.75;101.85;;;3.90;95.80;;;;;;5086849;28;20136;-76
2021/12/09 00:05:39;;;;;;;114.30;102.55;;;3.90;95.80;;;;;;5054918;28;20107;-76
2021/12/09 00:08:06;;;;;;;114.03;102.38;;;3.90;95.80;;;;;;5073772;28;20136;-76
2021/12/09 00:10:34;;;;;;;112.75;101.25;;;3.90;95.90;;;;;;5056683;28;20196;-76
2021/12/09 00:13:02;;;;;;;112.43;100.82;;;3.90;95.90;;;;;;5056728;28;20060;-76
2021/12/09 00:15:31;;;;;;;114.80;102.78;;;3.90;95.90;;;;;;5056356;28;20052;-76
2021/12/09 00:17:58;;;;;;;115.53;103.82;;;3.90;95.90;;;;;;5074897;28;20152;-76
2021/12/09 00:20:25;;;;;;;114.07;102.30;;;3.90;95.90;;;;;;5056603;28;20613;-76
2021/12/09 00:22:52;;;;;;;113.95;102.25;;;3.90;96.00;;;;;;5056978;28;20587;-77
2021/12/09 00:25:19;;;;;;;;;;;3.90;96.00;;;;;;5056620;28;20588;-76
2021/12/09 00:27:46;;;;;;;;;;;3.90;96.20;;;;;;5075959;28;20410;-76
2021/12/09 00:30:13;;;;;;;113.43;101.70;;;3.90;96.00;;;;;;5040463;28;19947;-76
2021/12/09 00:32:42;;;;;;;114.13;102.15;;;3.80;96.00;;;;;;5039912;28;20507;-76
2021/12/09 00:35:13;;;;;;;113.97;102.45;;;3.90;96.00;;;;;;5056060;28;20049;-76
2021/12/09 00:37:51;;;;;;;113.75;102.20;;;3.80;96.00;;;;;;5056625;28;20518;-76
2021/12/09 00:40:18;;;;;;;115.28;103.38;;;3.80;96.20;;;;;;5055916;28;20059;-76
2021/12/09 00:42:45;;;;;;;;;;;3.80;96.00;;;;;;5056778;28;20558;-76
2021/12/09 00:45:13;;;;;;;114.07;102.28;;;3.80;96.10;;;;;;5089691;28;19928;-76
2021/12/09 00:47:40;;;;;;;114.30;102.47;;;3.70;96.10;;;;;;5055065;28;20055;-77
2021/12/09 00:50:09;;;;;;;114.20;102.30;;;3.70;96.10;;;;;;5056138;28;20056;-77
2021/12/09 00:52:36;;;;;;;114.50;102.65;;;3.70;96.10;;;;;;5055887;28;20053;-77
2021/12/09 00:55:06;;;;;;;113.60;102.40;;;3.70;96.20;;;;;;5055546;28;20049;-77
2021/12/09 00:57:34;;;;;;;113.50;101.82;;;3.70;96.20;;;;;;5056228;28;20132;-77
2021/12/09 01:00:01;;;;;;;113.65;101.97;;;3.70;96.20;;;;;;5074236;28;20064;-77
2021/12/09 01:02:28;;;;;;;111.97;100.75;;;3.70;96.20;;;;;;5055900;28;20055;-77
2021/12/09 01:04:55;;;;;;;113.60;102.13;;;3.70;96.30;;;;;;5055693;28;20129;-77
2021/12/09 01:07:23;;;;;;;111.25;100.15;;;3.80;96.30;;;;;;5055842;28;20518;-77
2021/12/09 01:09:50;;;;;;;113.10;101.53;;;3.80;96.30;;;;;;5055975;28;20131;-77
2021/12/09 01:12:17;;;;;;;;;;;3.80;96.20;;;;;;5056071;28;20045;-76
2021/12/09 01:14:44;;;;;;;115.22;103.15;;;3.80;96.00;;;;;;5055842;28;20027;-77
2021/12/09 01:17:11;;;;;;;;;;;3.80;96.00;;;;;;5056529;28;20049;-76
2021/12/09 01:19:38;;;;;;;113.00;101.45;;;3.80;96.00;;;;;;5056058;28;19924;-76
2021/12/09 01:22:05;;;;;;;113.40;101.90;;;3.80;96.00;;;;;;5055612;28;20053;-77
2021/12/09 01:24:34;;;;;;;112.93;101.53;;;3.80;96.00;;;;;;5055675;28;20422;-77
2021/12/09 01:27:01;;;;;;;113.47;101.80;;;3.70;96.00;;;;;;5055099;28;20140;-76
2021/12/09 01:29:34;;;;;;;112.25;101.05;;;3.70;96.00;;;;;;5055430;28;20183;-77
2021/12/09 01:32:04;;;;;;;112.90;101.50;;;3.70;96.00;;;;;;5055360;28;20064;-77
2021/12/09 01:34:31;;;;;;;113.32;101.93;;;3.60;96.00;;;;;;5073942;28;20672;-77
2021/12/09 01:36:59;;;;;;;112.18;100.68;;;3.60;96.00;;;;;;5038614;28;20048;-77
2021/12/09 01:39:28;;;;;;;113.18;101.60;;;3.60;96.00;;;;;;5055330;28;20122;-77
2021/12/09 01:41:57;;;;;;;113.50;101.97;;;3.50;96.00;;;;;;5055607;28;20053;-77
2021/12/09 01:44:24;;;;;;;113.10;101.43;;;3.50;96.00;;;;;;5073634;28;20059;-77
2021/12/09 01:46:52;;;;;;;112.07;100.88;;;3.50;96.00;;;;;;5073200;28;20136;-76
2021/12/09 01:49:19;;;;;;;113.28;101.45;;;3.50;96.10;;;;;;5073244;28;20128;-76
2021/12/09 01:51:46;;;;;;;116.95;104.75;;;3.50;96.10;;;;;;5055208;28;20056;-76
2021/12/09 01:54:14;;;;;;;113.22;101.45;;;3.50;96.10;;;;;;5055143;28;20078;-76
2021/12/09 01:56:42;;;;;;;113.88;102.10;;;3.40;96.10;;;;;;5054708;28;20419;-76
2021/12/09 01:59:10;;;;;;;113.05;101.57;;;3.40;96.10;;;;;;5054660;28;20053;-77
2021/12/09 02:01:38;;;;;;;114.47;102.47;;;3.40;96.10;;;;;;5055347;28;20438;-76
2021/12/09 02:04:11;;;;;;;114.28;102.45;;;3.40;96.20;;;;;;5055388;28;20049;-77
2021/12/09 02:06:41;;;;;;;114.15;102.47;;;3.40;96.20;;;;;;5054628;28;20049;-76
2021/12/09 02:09:08;;;;;;;113.78;102.00;;;3.40;96.20;;;;;;5055427;28;20086;-76
2021/12/09 02:11:36;;;;;;;114.00;102.30;;;3.40;96.20;;;;;;5054967;28;20055;-76
2021/12/09 02:14:04;;;;;;;115.68;103.55;;;3.40;96.20;;;;;;5055123;28;20112;-77
2021/12/09 02:16:32;;;;;;;112.70;101.00;;;3.40;96.20;;;;;;5054881;28;20060;-77
2021/12/09 02:19:00;;;;;;;113.03;101.63;;;3.30;96.20;;;;;;5073171;28;20106;-77
2021/12/09 02:21:30;;;;;;;113.07;101.57;;;3.30;96.20;;;;;;5054635;28;20048;-76
2021/12/09 02:24:00;;;;;;;114.32;102.57;;;3.30;96.30;;;;;;5054660;28;20047;-77
2021/12/09 02:26:31;;;;;;;113.45;101.97;;;3.30;96.30;;;;;;5053863;28;20053;-77
2021/12/09 02:28:58;;;;;;;112.55;101.05;;;3.30;96.30;;;;;;5054872;28;20053;-76
2021/12/09 02:31:27;;;;;;;114.95;103.18;;;3.30;96.30;;;;;;5072692;28;20060;-77
2021/12/09 02:33:55;;;;;;;114.15;102.32;;;3.30;96.30;;;;;;5054488;28;20122;-76
2021/12/09 02:36:24;;;;;;;113.65;101.95;;;3.40;96.40;;;;;;5054614;28;20132;-76
2021/12/09 02:38:53;;;;;;;113.45;101.75;;;3.30;96.30;;;;;;5054723;28;20061;-77
2021/12/09 02:41:23;;;;;;;112.78;101.07;;;3.30;96.30;;;;;;5054596;28;20084;-76
2021/12/09 02:43:54;;;;;;;114.07;102.28;;;3.30;96.30;;;;;;5054730;28;20574;-77
2021/12/09 02:46:22;;;;;;;114.85;103.18;;;3.30;96.30;;;;;;5037469;28;20526;-76
2021/12/09 02:48:49;;;;;;;114.80;103.00;;;3.30;96.40;;;;;;5054438;28;20057;-76
2021/12/09 02:51:16;;;;;;;;;;;3.30;96.40;;;;;;5038258;28;20488;-76
2021/12/09 02:53:43;;;;;;;;;;;3.20;96.40;;;;;;5055131;28;20397;-77
2021/12/09 02:56:12;;;;;;;;;;;3.20;96.40;;;;;;5073435;28;19925;-77
2021/12/09 02:58:40;;;;;;;117.15;104.55;;;3.20;96.40;;;;;;5088085;28;20370;-77
2021/12/09 03:01:14;;;;;;;113.55;101.70;;;3.20;96.30;;;;;;5054501;28;20167;-77
2021/12/09 03:03:49;;;;;;;116.53;104.47;;;3.20;96.30;;;;;;5054245;28;20136;-77
2021/12/09 03:06:16;;;;;;;114.80;103.10;;;3.20;96.40;;;;;;5054107;28;20516;-77
2021/12/09 03:08:43;;;;;;;114.88;102.78;;;3.20;96.40;;;;;;5054170;28;20049;-77
2021/12/09 03:11:12;;;;;;;;;;;3.10;96.40;;;;;;5074243;28;20081;-77
2021/12/09 03:13:41;;;;;;;115.97;103.57;;;3.10;96.40;;;;;;5091889;28;19964;-77
2021/12/09 03:16:08;;;;;;;115.07;103.18;;;3.10;96.50;;;;;;5040773;28;20049;-77
2021/12/09 03:18:39;;;;;;;114.63;102.93;;;3.10;96.50;;;;;;5057410;28;20111;-76
2021/12/09 03:21:14;;;;;;;114.57;102.97;;;3.20;96.50;;;;;;5057481;28;20152;-77
2021/12/09 03:23:41;;;;;;;114.85;103.10;;;3.10;96.50;;;;;;5053897;28;20060;-76
2021/12/09 03:26:08;;;;;;;117.68;105.65;;;3.10;96.50;;;;;;5054960;28;20056;-76
2021/12/09 03:28:37;;;;;;;116.05;104.18;;;3.10;96.50;;;;;;5037503;28;20060;-77
2021/12/09 03:31:04;;;;;;;116.25;104.25;;;3.10;96.50;;;;;;5037382;28;20482;-76
2021/12/09 03:33:31;;;;;;;116.50;104.70;;;3.10;96.50;;;;;;5037326;28;20049;-77
2021/12/09 03:35:58;;;;;;;114.68;102.90;;;3.10;96.50;;;;;;5055314;28;20116;-76
2021/12/09 03:38:26;;;;;;;115.75;103.78;;;3.10;96.50;;;;;;5037416;28;20104;-76
2021/12/09 03:40:54;;;;;;;115.07;103.07;;;3.00;96.50;;;;;;5037691;28;20057;-76
2021/12/09 03:43:22;;;;;;;114.55;102.75;;;3.00;96.50;;;;;;5037622;28;20052;-77
2021/12/09 03:45:53;;;;;;;114.28;102.57;;;3.00;96.60;;;;;;5055527;28;20503;-77
2021/12/09 03:48:20;;;;;;;113.68;101.93;;;3.00;96.60;;;;;;5055232;28;20046;-77
2021/12/09 03:50:47;;;;;;;115.13;103.55;;;3.00;96.60;;;;;;5020798;28;20075;-77
2021/12/09 03:53:14;;;;;;;114.72;102.80;;;3.00;96.60;;;;;;5037109;28;20132;-76
2021/12/09 03:55:41;;;;;;;;;;;3.00;96.60;;;;;;5055204;28;20443;-77
2021/12/09 03:58:08;;;;;;;113.57;101.50;;;3.00;96.50;;;;;;5070870;28;20231;-77
2021/12/09 04:00:35;;;;;;;;;;;3.00;96.60;;;;;;5037585;28;20809;-77
2021/12/09 04:03:04;;;;;;;115.13;103.18;;;3.00;96.60;;;;;;5055418;28;20025;-77
2021/12/09 04:05:32;;;;;;;114.03;101.95;;;3.00;96.60;;;;;;5036737;28;20049;-76
2021/12/09 04:07:59;;;;;;;113.70;101.85;;;3.00;96.60;;;;;;5037013;28;20586;-77
2021/12/09 04:10:26;;;;;;;;;;;3.10;96.60;;;;;;5055124;28;20516;-77
2021/12/09 04:12:53;;;;;;;113.80;101.80;;;3.00;96.50;;;;;;5055020;28;19929;-77
2021/12/09 04:15:20;;;;;;;114.47;102.68;;;3.00;96.50;;;;;;5036576;28;20100;-77
2021/12/09 04:17:47;;;;;;;;;;;3.00;96.50;;;;;;5037458;28;20064;-77
2021/12/09 04:20:15;;;;;;;;;;;3.00;96.50;;;;;;5037592;28;19925;-76
2021/12/09 04:22:48;;;;;;;113.50;101.63;;;3.00;96.50;;;;;;5082925;28;19929;-77
2021/12/09 04:25:16;;;;;;;115.20;103.32;;;3.00;96.50;;;;;;5055992;28;20049;-77
2021/12/09 04:27:43;;;;;;;114.30;102.38;;;3.00;96.50;;;;;;5056603;28;20049;-76
2021/12/09 04:30:10;;;;;;;;;;;3.00;96.50;;;;;;5056679;28;20446;-77
2021/12/09 04:32:37;;;;;;;115.57;103.28;;;2.90;96.50;;;;;;5056437;28;19935;-77
2021/12/09 04:35:05;;;;;;;114.72;103.00;;;2.90;96.50;;;;;;5039711;28;20099;-76
2021/12/09 04:37:33;;;;;;;115.70;103.72;;;2.90;96.50;;;;;;5056534;28;20049;-76
2021/12/09 04:40:00;;;;;;;114.45;102.65;;;2.90;96.50;;;;;;5074978;28;20198;-77
2021/12/09 04:42:28;;;;;;;115.80;103.85;;;2.90;96.50;;;;;;5056251;28;20471;-76
2021/12/09 04:44:55;;;;;;;115.97;103.93;;;2.90;96.50;;;;;;5074029;28;20082;-77
2021/12/09 04:47:22;;;;;;;114.15;102.55;;;2.90;96.60;;;;;;5056146;28;20100;-77
2021/12/09 04:49:49;;;;;;;113.70;102.05;;;2.90;96.60;;;;;;5056375;28;20561;-77
2021/12/09 04:52:16;;;;;;;;;;;2.90;96.70;;;;;;5075109;28;20077;-77
2021/12/09 04:54:44;;;;;;;114.07;102.32;;;2.90;96.50;;;;;;5073395;28;19924;-76
2021/12/09 04:57:12;;;;;;;113.00;101.47;;;2.90;96.50;;;;;;5056178;28;20053;-77
2021/12/09 04:59:40;;;;;;;118.13;105.82;;;2.90;96.50;;;;;;5055808;28;20053;-76
2021/12/09 05:02:12;;;;;;;115.00;103.07;;;3.00;96.50;;;;;;5056204;28;20163;-77
2021/12/09 05:04:39;;;;;;;114.40;102.72;;;3.00;96.50;;;;;;5055552;28;20107;-77
2021/12/09 05:07:06;;;;;;;116.45;104.47;;;3.00;96.40;;;;;;5055941;28;20136;-77
2021/12/09 05:09:38;;;;;;;117.00;105.00;;;3.00;96.40;;;;;;5074551;28;20132;-77
2021/12/09 05:12:08;;;;;;;114.25;102.53;;;2.90;96.40;;;;;;5055339;28;20053;-77
2021/12/09 05:14:35;;;;;;;114.95;102.93;;;2.90;96.30;;;;;;5055948;28;20498;-77
2021/12/09 05:17:04;;;;;;;115.03;103.22;;;2.80;96.30;;;;;;5055436;28;20111;-77
2021/12/09 05:19:31;;;;;;;114.82;103.03;;;2.80;96.30;;;;;;5055858;28;20061;-76
2021/12/09 05:21:58;;;;;;;114.57;102.88;;;2.80;96.40;;;;;;5055882;28;20045;-76
2021/12/09 05:24:25;;;;;;;114.70;102.80;;;2.70;96.40;;;;;;5039362;28;20049;-76
2021/12/09 05:26:54;;;;;;;115.18;103.38;;;2.70;96.40;;;;;;5055416;28;20328;-76
2021/12/09 05:29:30;;;;;;;115.50;103.50;;;2.70;96.50;;;;;;5055655;28;20057;-76
2021/12/09 05:32:10;;;;;;;115.18;103.25;;;2.70;96.50;;;;;;5055609;28;20041;-77
2021/12/09 05:34:40;;;;;;;116.00;103.88;;;2.70;96.60;;;;;;5054645;28;20060;-77
2021/12/09 05:37:10;;;;;;;116.47;104.35;;;2.70;96.60;;;;;;5055361;28;20060;-76
2021/12/09 05:39:37;;;;;;;115.20;103.35;;;2.70;96.50;;;;;;5055362;28;20048;-76
2021/12/09 05:42:05;;;;;;;115.30;103.25;;;2.70;96.50;;;;;;5073826;28;20049;-76
2021/12/09 05:44:34;;;;;;;115.85;103.78;;;2.70;96.50;;;;;;5055568;28;20139;-76
2021/12/09 05:47:04;;;;;;;116.20;104.38;;;2.70;96.50;;;;;;5038980;28;20210;-76
2021/12/09 05:49:32;;;;;;;114.63;102.88;;;2.70;96.50;;;;;;5055328;28;20495;-76
2021/12/09 05:51:59;;;;;;;114.38;102.57;;;2.60;96.50;;;;;;5055233;28;20051;-76
2021/12/09 05:54:26;;;;;;;114.80;103.00;;;2.70;96.60;;;;;;5055090;28;20049;-76
2021/12/09 05:56:53;;;;;;;;;;;2.70;96.60;;;;;;5038818;28;20077;-77
2021/12/09 05:59:20;;;;;;;;;;;2.70;96.60;;;;;;5074290;28;19925;-76
2021/12/09 06:01:48;;;;;;;113.28;101.20;;;2.70;96.50;;;;;;5055670;28;20031;-76
2021/12/09 06:04:16;;;;;;;113.63;101.93;;;2.70;96.50;;;;;;5055248;28;20139;-76
2021/12/09 06:06:43;;;;;;;114.85;103.07;;;2.70;96.50;;;;;;5054793;28;20049;-77
2021/12/09 06:09:12;;;;;;;116.68;104.28;;;2.70;96.50;;;;;;5055271;28;20129;-77
2021/12/09 06:11:39;;;;;;;115.97;103.63;;;2.70;96.50;;;;;;5055076;28;20136;-76
2021/12/09 06:14:07;;;;;;;116.72;104.60;;;2.60;96.40;;;;;;5055010;28;20071;-76
2021/12/09 06:16:35;;;;;;;116.80;104.45;;;2.60;96.40;;;;;;5054687;28;20076;-76
2021/12/09 06:19:04;;;;;;;117.07;104.88;;;2.60;96.40;;;;;;5038419;28;20072;-76
2021/12/09 06:21:32;;;;;;;116.43;104.28;;;2.60;96.60;;;;;;5054895;28;20582;-77
2021/12/09 06:23:59;;;;;;;;;;;2.60;96.40;;;;;;5055386;28;20068;-76
2021/12/09 06:26:26;;;;;;;114.53;102.53;;;2.60;96.40;;;;;;5054525;28;20486;-76
2021/12/09 06:28:53;;;;;;;113.72;101.60;;;2.50;96.40;;;;;;5055039;28;20085;-76
2021/12/09 06:31:21;;;;;;;113.68;101.82;;;2.50;96.40;;;;;;5037967;28;20128;-76
2021/12/09 06:33:48;;;;;;;114.60;102.60;;;2.50;96.50;;;;;;5054426;28;20052;-76
2021/12/09 06:36:17;;;;;;;115.30;103.25;;;2.50;96.50;;;;;;5054393;28;20059;-76
2021/12/09 06:38:44;;;;;;;115.13;103.05;;;2.50;96.50;;;;;;5054826;28;20190;-76
2021/12/09 06:41:11;;;;;;;116.00;103.53;;;2.50;96.50;;;;;;5054659;28;20515;-76
2021/12/09 06:43:40;;;;;;;115.10;102.97;;;2.50;96.50;;;;;;5072745;28;20139;-76
2021/12/09 06:46:09;;;;;;;116.10;103.55;;;2.50;96.60;;;;;;5055814;28;20541;-76
2021/12/09 06:48:37;;;;;;;115.43;103.25;;;2.50;96.60;;;;;;5058712;28;20055;-76
2021/12/09 06:51:05;;;;;;;115.63;103.55;;;2.40;96.60;;;;;;5058396;28;20117;-76
2021/12/09 06:53:35;;;;;;;114.50;102.32;;;2.50;96.60;;;;;;5057948;28;20612;-76
2021/12/09 06:56:02;;;;;;;114.65;102.80;;;2.50;96.60;;;;;;5057694;28;20083;-76
2021/12/09 06:58:29;;;;;;;115.57;103.32;;;2.40;96.60;;;;;;5058012;28;20132;-76
2021/12/09 07:00:57;;;;;;;114.05;102.07;;;2.40;96.70;;;;;;5058450;28;20049;-76
2021/12/09 07:03:24;;;;;;;113.18;101.18;;;2.40;96.70;;;;;;5076495;28;20099;-77
2021/12/09 07:05:53;;;;;;;114.35;102.15;;;2.40;96.70;;;;;;5057569;28;20049;-76
2021/12/09 07:08:21;;;;;;;114.88;102.75;;;2.40;96.80;;;;;;5057905;28;20488;-76
2021/12/09 07:10:51;;;;;;;113.88;102.28;;;2.40;96.80;;;;;;5057882;28;20143;-76
2021/12/09 07:13:18;;;;;;;114.25;101.95;;;2.40;96.80;;;;;;5057564;28;20063;-76
2021/12/09 07:15:45;;;;;;;114.40;102.40;;;2.30;96.80;;;;;;5056716;28;20045;-77
2021/12/09 07:18:12;;;;;;;115.63;103.35;;;2.40;96.80;;;;;;5060416;28;20053;-79
2021/12/09 07:20:39;;;;;;;115.88;103.25;;;2.40;96.90;;;;;;5064302;27;20063;-80
2021/12/09 07:23:06;;;;;;;116.30;103.65;;;2.30;96.80;;;;;;5045939;28;20055;-79
2021/12/09 07:25:33;;;;;;;;;;;2.30;96.90;;;;;;5048291;28;20049;-78
2021/12/09 07:28:01;;;;;;;;;;;2.30;96.90;;;;;;5102083;28;19924;-79
2021/12/09 07:30:29;;;;;;;115.90;102.10;;;2.30;97.00;;;;;;5066934;28;20338;-80
2021/12/09 07:32:57;;;;;;;114.03;102.07;;;2.30;97.00;;;;;;5058381;28;20052;-79
2021/12/09 07:35:26;;;;;;;116.93;104.88;;;2.30;97.00;;;;;;5055914;28;20053;-78
2021/12/09 07:37:53;;;;;;;114.53;102.50;;;2.30;96.90;;;;;;5055518;28;20108;-79
2021/12/09 07:40:20;;;;;;;117.65;105.22;;;2.30;96.90;;;;;;5055120;28;20106;-77
2021/12/09 07:42:48;;;;;;;113.93;101.88;;;2.30;96.90;;;;;;5053731;28;20049;-78
2021/12/09 07:45:17;;;;;;;113.80;102.15;;;2.20;96.90;;;;;;5055606;28;20144;-78
2021/12/09 07:47:45;;;;;;;114.35;102.38;;;2.30;96.90;;;;;;5056120;28;20159;-80
2021/12/09 07:50:14;;;;;;;114.60;102.55;;;2.20;96.90;;;;;;5056979;28;20085;-79
2021/12/09 07:52:42;;;;;;;114.45;102.50;;;2.20;96.90;;;;;;5055864;28;20549;-78
2021/12/09 07:55:11;;;;;;;114.70;102.57;;;2.20;96.90;;;;;;5055943;28;20057;-78
2021/12/09 07:57:38;;;;;;;115.00;103.00;;;2.20;96.90;;;;;;5055630;28;20495;-78
2021/12/09 08:00:05;;;;;;;;;;;2.20;96.90;;;;;;5042878;28;20057;-77
2021/12/09 08:02:40;;;;;;;119.20;102.88;;;2.20;96.90;;;;;;5055058;28;20407;-77
2021/12/09 08:05:08;;;;;;;114.93;102.63;;;2.10;96.90;;;;;;5048812;28;20052;-77
2021/12/09 08:07:35;;;;;;;113.47;101.60;;;2.10;96.90;;;;;;5074304;28;20063;-79
2021/12/09 08:10:02;;;;;;;;;;;2.10;96.90;;;;;;5040087;28;20126;-79
2021/12/09 08:12:29;;;;;;;113.85;102.03;;;2.10;97.00;;;;;;5056642;28;19968;-79
2021/12/09 08:14:57;;;;;;;115.20;102.43;;;2.20;97.00;;;;;;5055832;28;20140;-79
2021/12/09 08:17:44;;;;;;;115.60;103.53;;;2.20;96.90;;;;;;5054975;28;20550;-78
2021/12/09 08:20:14;;;;;;;114.40;102.28;;;2.20;97.00;;;;;;5059267;28;20057;-79
2021/12/09 08:22:42;;;;;;;116.53;104.28;;;2.20;97.00;;;;;;5046652;28;20740;-79
2021/12/09 08:25:12;;;;;;;115.18;102.93;;;2.20;97.00;;;;;;5059173;28;20511;-77
2021/12/09 08:27:42;;;;;;;115.18;103.15;;;2.20;97.00;;;;;;5081155;28;20064;-77
2021/12/09 08:30:12;;;;;;;116.43;104.32;;;2.20;97.00;;;;;;5067753;28;20052;-78
2021/12/09 08:32:39;;;;;;;115.07;102.72;;;2.20;97.00;;;;;;5064434;28;20099;-77
2021/12/09 08:35:07;;;;;;;116.40;104.20;;;2.20;97.00;;;;;;5060834;28;20421;-77
2021/12/09 08:37:35;;;;;;;116.43;104.25;;;2.20;97.00;;;;;;5041617;28;20507;-79
2021/12/09 08:40:04;;;;;;;116.45;103.88;;;2.20;97.00;;;;;;5039752;28;20053;-79
2021/12/09 08:42:31;;;;;;;116.47;103.90;;;2.20;97.00;;;;;;5039850;28;20496;-79
2021/12/09 08:44:57;;;;;;;118.07;105.10;;;2.20;97.00;;;;;;5041630;28;20051;-76
2021/12/09 08:47:24;;;;;;;114.22;102.22;;;2.10;97.10;;;;;;5055729;28;20142;-76
2021/12/09 08:49:51;;;;;;;;;;;2.20;97.10;;;;;;5040101;28;20107;-76
2021/12/09 08:52:19;;;;;;;114.15;102.32;;;2.10;97.10;;;;;;5074230;28;19967;-76
2021/12/09 08:54:47;;;;;;;116.75;104.22;;;2.20;97.10;;;;;;5055125;28;20053;-77
2021/12/09 08:57:14;;;;;;;115.25;103.05;;;2.10;97.10;;;;;;5055952;28;20483;-76
2021/12/09 08:59:41;;;;;;;115.28;103.15;;;2.20;97.10;;;;;;5038735;28;20136;-77
2021/12/09 09:02:08;;;;;;;114.63;102.70;;;2.20;97.20;;;;;;5055418;28;20045;-76
2021/12/09 09:04:35;;;;;;;116.15;103.90;;;2.20;97.20;;;;;;5072826;28;20551;-76
2021/12/09 09:07:03;;;;;;;115.35;103.13;;;2.20;97.10;;;;;;5055929;28;20053;-76
2021/12/09 09:09:34;;;;;;;114.53;102.10;;;2.30;97.20;;;;;;5074575;28;20114;-76
2021/12/09 09:12:04;;;;;;;114.40;102.13;;;2.30;97.30;;;;;;5076150;28;20908;-76
2021/12/09 09:14:31;;;;;;;114.65;102.75;;;2.30;97.30;;;;;;5076043;28;20048;-77
2021/12/09 09:16:58;;;;;;;113.53;101.75;;;2.30;97.30;;;;;;5075688;28;20147;-77
2021/12/09 09:19:25;;;;;;;114.57;102.30;;;2.40;97.30;;;;;;5075578;28;20131;-76
2021/12/09 09:21:51;;;;;;;;;;;2.40;97.30;;;;;;5073700;28;20053;-77
2021/12/09 09:24:19;;;;;;;112.55;100.40;;;2.40;97.30;;;;;;5053098;28;19924;-79
2021/12/09 09:26:46;;;;;;;;;;;2.40;97.40;;;;;;5031543;28;20049;-76
2021/12/09 09:29:14;;;;;;;113.65;101.60;;;2.50;97.40;;;;;;5088317;28;19928;-76
2021/12/09 09:31:42;;;;;;;117.95;105.35;;;2.50;97.40;;;;;;5077130;28;20511;-76
2021/12/09 09:34:11;;;;;;;113.80;101.57;;;2.50;97.50;;;;;;5080893;28;20049;-76
2021/12/09 09:36:43;;;;;;;113.90;101.57;;;2.50;97.40;;;;;;5059136;28;20060;-76
2021/12/09 09:39:17;;;;;;;115.63;102.68;;;2.60;97.40;;;;;;5039637;28;20388;-76
2021/12/09 09:41:47;;;;;;;114.25;102.05;;;2.60;97.50;;;;;;5054093;28;20511;-76
2021/12/09 09:44:18;;;;;;;115.13;102.93;;;2.60;97.50;;;;;;5053863;28;20052;-75
2021/12/09 09:46:46;;;;;;;114.30;102.32;;;2.70;97.50;;;;;;5051764;28;20055;-76
2021/12/09 09:49:13;;;;;;;114.95;102.78;;;2.70;97.60;;;;;;5054413;28;20048;-76
2021/12/09 09:51:40;;;;;;;112.65;100.78;;;2.70;97.60;;;;;;5055310;28;20048;-75
2021/12/09 09:54:09;;;;;;;114.63;102.43;;;2.70;97.50;;;;;;5055159;28;20113;-76
2021/12/09 09:56:41;;;;;;;112.75;101.05;;;2.80;97.60;;;;;;5058438;28;20075;-76
2021/12/09 09:59:10;;;;;;;114.65;102.68;;;2.80;97.60;;;;;;5053540;28;20053;-76
2021/12/09 10:01:40;;;;;;;113.07;101.35;;;2.90;97.70;;;;;;5086181;28;20167;-76
2021/12/09 10:04:14;;;;;;;115.30;102.95;;;2.90;97.70;;;;;;5062757;28;20569;-75
2021/12/09 10:06:44;;;;;;;113.53;101.63;;;3.00;97.70;;;;;;5039648;28;20128;-76
2021/12/09 10:09:12;;;;;;;113.70;101.82;;;3.00;97.70;;;;;;5080520;28;20119;-76
2021/12/09 10:11:40;;;;;;;115.03;102.88;;;3.00;97.70;;;;;;5059968;28;20519;-76
2021/12/09 10:14:16;;;;;;;113.03;101.05;;;3.10;97.70;;;;;;5077952;28;20049;-76
2021/12/09 10:16:45;;;;;;;115.28;103.13;;;3.20;97.60;;;;;;5078583;28;20084;-76
2021/12/09 10:19:21;;;;;;;114.47;102.18;;;3.20;97.60;;;;;;5060140;28;20087;-76
2021/12/09 10:21:49;;;;;;;113.43;101.57;;;3.30;97.60;;;;;;5079795;28;20071;-76
2021/12/09 10:24:17;;;;;;;113.55;101.55;;;3.30;97.50;;;;;;5064469;28;20060;-77
2021/12/09 10:26:45;;;;;;;114.28;102.00;;;3.30;97.50;;;;;;5056892;28;20055;-77
2021/12/09 10:29:18;;;;;;;113.45;101.53;;;3.40;97.60;;;;;;5047514;28;20540;-82
2021/12/09 10:31:50;;;;;;;115.85;103.65;;;3.40;97.60;;;;;;5059099;28;20045;-78
2021/12/09 10:34:32;;;;;;;111.40;99.55;;;3.50;97.50;;;;;;5078997;28;20515;-82
2021/12/09 10:37:15;;;;;;;114.90;103.03;;;3.50;97.40;;;;;;5056301;28;20492;-82
2021/12/09 10:39:46;;;;;;;113.30;101.50;;;3.50;97.40;;;;;;5067262;28;20052;-81
2021/12/09 10:42:17;;;;;;;113.47;101.50;;;3.50;97.40;;;;;;5069401;28;20053;-77
2021/12/09 10:44:51;;;;;;;116.35;104.05;;;3.60;97.30;;;;;;5079071;28;20499;-78
2021/12/09 10:47:33;;;;;;;116.55;104.15;;;3.60;97.30;;;;;;5079146;28;20111;-79
2021/12/09 10:50:15;;;;;;;116.85;103.07;;;3.60;97.30;;;;;;4998143;28;20049;-80
2021/12/09 10:52:49;;;;;;;115.90;103.60;;;3.60;97.40;;;;;;5048783;28;20052;-81
2021/12/09 10:55:26;;;;;;;115.43;102.95;;;3.60;97.40;;;;;;5039029;28;20065;-84
2021/12/09 10:57:54;;;;;;;;;;;3.50;97.40;;;;;;5057686;28;20080;-81
2021/12/09 11:00:35;;;;;;;114.95;102.63;;;3.60;97.60;;;;;;5060849;28;19978;-79
2021/12/09 11:03:13;;;;;;;115.22;102.93;;;3.60;97.60;;;;;;5061397;28;20083;-77
2021/12/09 11:05:44;;;;;;;115.38;103.10;;;3.60;97.60;;;;;;5057913;28;20135;-82
2021/12/09 11:08:21;;;;;;;114.13;102.10;;;3.60;97.60;;;;;;5060090;28;20075;-83
2021/12/09 11:10:50;;;;;;;114.63;102.53;;;3.60;97.70;;;;;;5049125;28;20122;-79
2021/12/09 11:13:22;;;;;;;115.80;103.70;;;3.60;97.70;;;;;;5063175;28;20053;-76
2021/12/09 11:15:54;;;;;;;114.50;102.40;;;3.60;97.70;;;;;;5077513;28;20064;-76
2021/12/09 11:18:43;;;;;;;115.68;103.75;;;3.60;97.70;;;;;;5047028;28;20060;-78
2021/12/09 11:21:15;;;;;;;114.95;102.90;;;3.60;97.70;;;;;;5060386;28;20057;-79
2021/12/09 11:23:49;;;;;;;115.88;103.35;;;3.70;97.80;;;;;;5060987;28;20076;-80
2021/12/09 11:26:27;;;;;;;114.22;102.45;;;3.70;97.70;;;;;;5057944;28;20049;-78
2021/12/09 11:28:56;;;;;;;114.53;102.30;;;3.70;97.70;;;;;;5085149;28;20514;-79
2021/12/09 11:31:26;;;;;;;115.10;103.07;;;3.70;97.70;;;;;;5059436;28;20053;-79
2021/12/09 11:34:06;;;;;;;114.00;102.35;;;3.70;97.70;;;;;;5050427;28;20044;-78
2021/12/09 11:36:52;;;;;;;115.28;102.88;;;3.70;97.70;;;;;;5068034;28;20060;-81
2021/12/09 11:39:26;;;;;;;115.00;102.80;;;3.80;97.70;;;;;;5064768;28;20107;-78
2021/12/09 11:42:03;;;;;;;116.68;104.05;;;3.80;97.70;;;;;;5058788;28;20057;-79
2021/12/09 11:44:30;;;;;;;119.28;107.00;;;3.80;97.70;;;;;;5056099;28;20049;-77
2021/12/09 11:46:57;;;;;;;;;;;3.80;97.80;;;;;;5057179;28;20124;-84
2021/12/09 11:49:26;;;;;;;119.20;106.43;;;3.90;97.80;;;;;;5044896;28;20594;-84
2021/12/09 11:51:53;;;;;;;120.38;107.78;;;3.90;97.70;;;;;;5043336;28;20053;-83
2021/12/09 11:54:22;;;;;;;;;;;3.90;97.70;;;;;;5043613;28;20759;-84
2021/12/09 11:57:12;;;;;;;120.63;106.97;;;4.00;97.80;;;;;;5056931;28;20555;-79
2021/12/09 12:11:39;;;;;;;118.68;105.95;;;3.90;97.70;;;;;;5067664;28;20423;-83
2021/12/09 12:14:28;;;;;;;117.82;105.40;;;3.90;97.80;;;;;;5056277;28;20053;-80
2021/12/09 12:17:09;;;;;;;117.93;105.78;;;4.00;97.80;;;;;;5057572;28;20056;-80
2021/12/09 12:20:02;;;;;;;117.40;105.03;;;3.90;97.80;;;;;;5061891;28;20049;-81
2021/12/09 12:22:54;;;;;;;120.90;107.85;;;3.90;98.00;;;;;;5065596;28;20546;-79
2021/12/09 12:28:51;;;;;;;121.82;108.90;;;4.00;98.00;;;;;;5037494;28;20503;-77
2021/12/09 12:34:55;;;;;;;121.88;108.82;;;4.10;98.00;;;;;;5044654;28;20068;-76
2021/12/09 12:37:50;;;;;;;119.60;106.85;;;4.10;98.00;;;;;;5069835;28;20056;-79
2021/12/09 12:40:19;;;;;;;122.80;109.70;;;4.10;97.90;;;;;;5048386;28;20081;-78
2021/12/09 12:42:52;;;;;;;125.88;112.53;;;4.00;98.00;;;;;;5054775;28;20107;-79
2021/12/09 12:51:29;;;;;;;123.45;110.13;;;4.10;98.00;;;;;;5043091;28;20052;-77
2021/12/09 12:54:01;;;;;;;123.00;109.53;;;4.10;98.10;;;;;;5068918;28;20442;-78
2021/12/09 12:56:32;;;;;;;123.97;110.78;;;4.20;98.00;;;;;;5054271;28;20183;-78
2021/12/09 12:59:20;;;;;;;123.18;109.93;;;4.20;98.10;;;;;;5038171;28;20128;-79
2021/12/09 13:02:24;;;;;;;119.53;106.50;;;4.20;98.10;;;;;;5034130;28;20579;-76
2021/12/09 13:05:01;;;;;;;123.00;109.93;;;4.10;98.10;;;;;;5035739;28;20135;-77